createdAt,value
2022-10-21T00:00:51.794Z,8.07
2022-10-21T00:03:20.092Z,8.43
2022-10-21T00:05:47.990Z,8.30
2022-10-21T00:08:16.463Z,8.20
2022-10-21T00:10:44.333Z,7.57
2022-10-21T00:13:13.679Z,7.70
2022-10-21T00:15:41.532Z,8.43
2022-10-21T00:18:09.335Z,8.03
2022-10-21T00:20:39.612Z,8.00
2022-10-21T00:23:07.658Z,8.30
2022-10-21T00:25:35.440Z,8.80
2022-10-21T00:28:07.140Z,8.10
2022-10-21T00:30:36.230Z,6.30
2022-10-21T00:33:04.054Z,5.37
2022-10-21T00:35:34.818Z,6.13
2022-10-21T00:38:02.671Z,5.63
2022-10-21T00:40:30.698Z,5.60
2022-10-21T00:42:58.639Z,5.33
2022-10-21T00:45:27.731Z,6.30
2022-10-21T00:48:01.028Z,5.93
2022-10-21T00:50:37.503Z,5.50
2022-10-21T00:53:11.906Z,5.87
2022-10-21T00:55:44.937Z,6.20
2022-10-21T00:58:13.056Z,6.20
2022-10-21T01:00:40.977Z,6.90
2022-10-21T01:03:10.225Z,7.40
2022-10-21T01:05:40.210Z,7.40
2022-10-21T01:08:08.062Z,7.30
2022-10-21T01:10:36.086Z,7.20
2022-10-21T01:13:16.254Z,6.67
2022-10-21T01:15:51.830Z,7.57
2022-10-21T01:18:27.240Z,6.07
2022-10-21T01:21:26.343Z,6.60
2022-10-21T01:24:28.944Z,8.80
2022-10-21T01:27:17.060Z,8.43
2022-10-21T01:30:21.703Z,8.30
2022-10-21T01:33:15.156Z,10.73
2022-10-21T01:35:49.835Z,8.50
2022-10-21T01:38:23.890Z,9.10
2022-10-21T01:40:59.060Z,7.57
2022-10-21T01:43:36.415Z,8.57
2022-10-21T01:46:08.409Z,8.57
2022-10-21T01:48:44.216Z,9.30
2022-10-21T01:51:13.526Z,10.20
2022-10-21T01:53:46.745Z,10.30
2022-10-21T01:56:17.580Z,10.47
2022-10-21T01:58:48.653Z,9.80
2022-10-21T02:01:18.717Z,9.30
2022-10-21T02:03:53.493Z,8.63
2022-10-21T02:06:21.454Z,10.40
2022-10-21T02:08:49.359Z,9.40
2022-10-21T02:11:18.945Z,11.17
2022-10-21T02:13:54.805Z,9.37
2022-10-21T02:16:27.438Z,9.93
2022-10-21T02:18:58.383Z,8.90
2022-10-21T02:21:29.403Z,9.20
2022-10-21T02:24:02.352Z,8.20
2022-10-21T02:26:30.192Z,8.47
2022-10-21T02:29:00.140Z,9.97
2022-10-21T02:31:47.016Z,9.47
2022-10-21T02:34:27.396Z,9.63
2022-10-21T02:37:04.284Z,9.17
2022-10-21T02:39:35.644Z,9.60
2022-10-21T02:42:08.055Z,9.83
2022-10-21T02:44:37.979Z,9.97
2022-10-21T02:47:06.006Z,9.23
2022-10-21T02:49:35.142Z,9.23
2022-10-21T02:52:02.938Z,10.27
2022-10-21T02:54:30.701Z,9.70
2022-10-21T02:56:58.524Z,9.20
2022-10-21T02:59:26.544Z,10.57
2022-10-21T03:01:54.456Z,12.13
2022-10-21T03:04:22.453Z,9.57
2022-10-21T03:06:51.611Z,9.43
2022-10-21T03:09:19.427Z,9.73
2022-10-21T03:11:47.239Z,9.67
2022-10-21T03:14:15.103Z,9.33
2022-10-21T03:16:42.898Z,8.33
2022-10-21T03:19:10.989Z,8.57
2022-10-21T03:21:38.786Z,9.10
2022-10-21T03:24:15.194Z,8.53
2022-10-21T03:26:53.131Z,8.13
2022-10-21T03:29:20.951Z,8.43
2022-10-21T03:31:48.743Z,8.20
2022-10-21T03:34:16.724Z,7.70
2022-10-21T03:36:44.508Z,7.83
2022-10-21T03:39:14.105Z,7.70
2022-10-21T03:41:41.986Z,7.77
2022-10-21T03:44:09.857Z,8.90
2022-10-21T03:46:37.649Z,8.80
2022-10-21T03:49:07.661Z,7.87
2022-10-21T03:51:39.867Z,7.57
2022-10-21T03:54:07.662Z,8.75
2022-10-21T03:56:36.928Z,8.83
2022-10-21T03:59:04.772Z,8.97
2022-10-21T04:01:32.603Z,8.93
2022-10-21T04:04:00.408Z,8.37
2022-10-21T04:06:28.177Z,8.47
2022-10-21T04:08:56.086Z,7.93
2022-10-21T04:11:23.900Z,7.17
2022-10-21T04:13:53.236Z,7.10
2022-10-21T04:16:22.832Z,8.30
2022-10-21T04:18:50.966Z,8.97
2022-10-21T04:21:20.137Z,7.83
2022-10-21T04:23:47.964Z,8.13
2022-10-21T04:26:15.760Z,8.23
2022-10-21T04:28:43.565Z,8.80
2022-10-21T04:31:12.804Z,7.57
2022-10-21T04:33:40.565Z,5.30
2022-10-21T04:36:08.823Z,5.00
2022-10-21T04:38:36.640Z,5.60
2022-10-21T04:41:04.741Z,5.90
2022-10-21T04:43:32.528Z,5.03
2022-10-21T04:46:00.310Z,5.27
2022-10-21T04:48:29.454Z,5.77
2022-10-21T04:50:57.552Z,4.70
2022-10-21T04:53:25.320Z,5.00
2022-10-21T04:55:54.364Z,4.40
2022-10-21T04:58:23.215Z,4.77
2022-10-21T05:00:51.611Z,5.00
2022-10-21T05:03:19.880Z,4.43
2022-10-21T05:05:51.565Z,5.40
2022-10-21T05:08:20.076Z,4.33
2022-10-21T05:10:48.098Z,4.07
2022-10-21T05:13:16.499Z,4.67
2022-10-21T05:15:44.385Z,4.40
2022-10-21T05:18:12.148Z,4.17
2022-10-21T05:20:39.920Z,4.37
2022-10-21T05:23:09.071Z,4.70
2022-10-21T05:25:37.016Z,4.73
2022-10-21T05:28:05.061Z,4.77
2022-10-21T05:30:32.858Z,4.00
2022-10-21T05:33:00.725Z,4.10
2022-10-21T05:35:28.612Z,4.47
2022-10-21T05:37:56.416Z,5.03
2022-10-21T05:40:25.607Z,3.50
2022-10-21T05:42:53.508Z,3.50
2022-10-21T05:45:21.324Z,3.90
2022-10-21T05:47:49.084Z,3.83
2022-10-21T05:50:16.965Z,4.23
2022-10-21T05:52:44.782Z,4.10
2022-10-21T05:55:12.904Z,4.10
2022-10-21T05:57:42.132Z,4.87
2022-10-21T06:00:11.458Z,4.50
2022-10-21T06:02:39.610Z,4.40
2022-10-21T06:05:08.251Z,3.77
2022-10-21T06:07:36.404Z,4.03
2022-10-21T06:10:05.323Z,4.00
2022-10-21T06:12:33.132Z,4.10
2022-10-21T06:15:02.306Z,4.30
2022-10-21T06:17:30.176Z,4.80
2022-10-21T06:19:58.056Z,4.53
2022-10-21T06:22:25.902Z,5.10
2022-10-21T06:24:53.696Z,5.60
2022-10-21T06:27:21.508Z,4.67
2022-10-21T06:29:49.343Z,5.60
2022-10-21T06:32:18.563Z,6.43
2022-10-21T06:34:46.349Z,6.17
2022-10-21T06:37:14.143Z,5.63
2022-10-21T06:39:41.955Z,6.60
2022-10-21T06:42:09.749Z,7.17
2022-10-21T06:44:37.516Z,6.73
2022-10-21T06:47:05.422Z,4.67
2022-10-21T06:49:34.788Z,4.70
2022-10-21T06:52:02.699Z,4.20
2022-10-21T06:54:30.845Z,3.73
2022-10-21T06:56:58.714Z,3.90
2022-10-21T06:59:26.582Z,4.50
2022-10-21T07:02:01.737Z,4.37
2022-10-21T07:04:31.864Z,4.50
2022-10-21T07:07:01.116Z,4.50
2022-10-21T07:09:29.103Z,4.20
2022-10-21T07:11:57.072Z,4.30
2022-10-21T07:14:25.269Z,4.70
2022-10-21T07:16:53.863Z,4.57
2022-10-21T07:19:21.717Z,3.80
2022-10-21T07:21:49.501Z,3.97
2022-10-21T07:24:22.359Z,4.23
2022-10-21T07:26:51.357Z,4.90
2022-10-21T07:29:19.648Z,4.10
2022-10-21T07:31:47.447Z,5.00
2022-10-21T07:34:15.437Z,5.83
2022-10-21T07:36:47.813Z,4.50
2022-10-21T07:39:18.847Z,4.50
2022-10-21T07:41:48.527Z,3.93
2022-10-21T07:44:17.124Z,4.60
2022-10-21T07:46:45.811Z,4.60
2022-10-21T07:49:14.701Z,5.27
2022-10-21T07:51:46.442Z,4.47
2022-10-21T07:54:19.476Z,4.90
2022-10-21T07:56:49.789Z,4.43
2022-10-21T07:59:18.961Z,5.80
2022-10-21T08:04:21.884Z,4.20
2022-10-21T08:06:50.283Z,4.63
2022-10-21T08:09:19.452Z,5.50
2022-10-21T08:11:47.321Z,4.20
2022-10-21T08:14:18.018Z,4.40
2022-10-21T08:16:45.931Z,5.30
2022-10-21T08:19:19.335Z,4.20
2022-10-21T08:21:47.396Z,4.97
2022-10-21T08:24:15.285Z,4.30
2022-10-21T08:26:44.415Z,4.20
2022-10-21T08:29:12.251Z,4.87
2022-10-21T08:31:40.714Z,4.80
2022-10-21T08:34:08.546Z,4.00
2022-10-21T08:36:37.532Z,3.63
2022-10-21T08:39:06.005Z,4.33
2022-10-21T08:41:54.351Z,3.73
2022-10-21T08:44:31.155Z,3.23
2022-10-21T08:47:04.452Z,3.50
2022-10-21T08:49:43.771Z,3.23
2022-10-21T08:52:15.580Z,2.97
2022-10-21T08:54:48.568Z,3.10
2022-10-21T08:57:18.326Z,3.80
2022-10-21T08:59:47.157Z,3.40
2022-10-21T09:02:43.981Z,3.00
2022-10-21T09:05:29.727Z,3.33
2022-10-21T09:08:09.765Z,3.23
2022-10-21T09:10:52.130Z,3.93
2022-10-21T09:13:33.322Z,2.90
2022-10-21T09:16:08.198Z,3.10
2022-10-21T09:18:51.653Z,3.20
2022-10-21T09:21:24.996Z,2.87
2022-10-21T09:24:03.633Z,3.33
2022-10-21T09:26:41.568Z,2.90
2022-10-21T09:29:33.121Z,3.27
2022-10-21T09:32:14.831Z,2.93
2022-10-21T09:34:48.540Z,3.40
2022-10-21T09:37:23.200Z,3.57
2022-10-21T09:39:56.195Z,3.93
2022-10-21T09:42:42.770Z,3.57
2022-10-21T09:45:23.079Z,3.30
2022-10-21T09:47:56.958Z,3.50
2022-10-21T09:50:25.319Z,3.60
2022-10-21T09:53:00.791Z,3.10
2022-10-21T09:55:31.375Z,3.37
2022-10-21T09:58:01.100Z,3.77
2022-10-21T10:00:48.259Z,3.73
2022-10-21T10:03:32.191Z,2.97
2022-10-21T10:06:00.557Z,4.50
2022-10-21T10:08:36.158Z,3.17
2022-10-21T10:11:17.006Z,4.10
2022-10-21T10:13:47.666Z,3.03
2022-10-21T10:16:23.349Z,3.60
2022-10-21T10:18:53.457Z,3.30
2022-10-21T10:21:22.983Z,3.30
2022-10-21T10:23:58.215Z,3.50
2022-10-21T10:26:30.738Z,3.87
2022-10-21T10:29:02.852Z,4.40
2022-10-21T10:31:35.510Z,3.37
2022-10-21T10:34:06.604Z,3.47
2022-10-21T10:36:38.399Z,4.00
2022-10-21T10:39:09.120Z,4.40
2022-10-21T10:41:41.793Z,4.20
2022-10-21T10:44:13.464Z,4.33
2022-10-21T10:46:44.461Z,3.93
2022-10-21T10:49:24.358Z,3.77
2022-10-21T10:52:06.595Z,3.10
2022-10-21T10:54:35.210Z,4.00
2022-10-21T10:57:06.806Z,3.70
2022-10-21T10:59:41.093Z,3.67
2022-10-21T11:02:26.878Z,3.83
2022-10-21T11:05:21.369Z,3.70
2022-10-21T11:07:51.374Z,4.70
2022-10-21T11:10:31.265Z,4.80
2022-10-21T11:13:00.116Z,4.70
2022-10-21T11:15:40.022Z,3.73
2022-10-21T11:18:24.486Z,4.30
2022-10-21T11:21:05.348Z,4.17
2022-10-21T11:23:58.204Z,4.00
2022-10-21T11:26:34.635Z,4.43
2022-10-21T11:29:19.310Z,5.13
2022-10-21T11:32:11.233Z,4.90
2022-10-21T11:35:00.249Z,4.93
2022-10-21T11:37:44.094Z,4.47
2022-10-21T11:40:21.039Z,5.00
2022-10-21T11:42:52.345Z,4.50
2022-10-21T11:45:38.109Z,4.33
2022-10-21T11:48:26.899Z,3.50
2022-10-21T11:51:06.236Z,4.13
2022-10-21T11:53:48.185Z,3.30
2022-10-21T11:56:24.205Z,4.57
2022-10-21T11:59:08.553Z,4.00
2022-10-21T12:01:48.508Z,4.10
2022-10-21T12:04:24.370Z,3.97
2022-10-21T12:07:11.011Z,3.67
2022-10-21T12:09:44.626Z,4.10
2022-10-21T12:12:16.239Z,3.80
2022-10-21T12:14:49.548Z,3.87
2022-10-21T12:17:20.652Z,4.50
2022-10-21T12:19:56.325Z,4.17
2022-10-21T12:22:29.004Z,4.93
2022-10-21T12:25:03.373Z,3.93
2022-10-21T12:27:36.276Z,4.40
2022-10-21T12:30:13.906Z,4.27
2022-10-21T12:32:49.153Z,4.83
2022-10-21T12:35:26.482Z,4.60
2022-10-21T12:38:21.157Z,4.37
2022-10-21T12:40:50.035Z,5.53
2022-10-21T12:43:27.140Z,4.00
2022-10-21T12:46:07.315Z,4.70
2022-10-21T12:48:40.145Z,3.97
2022-10-21T12:51:19.068Z,4.90
2022-10-21T12:53:53.239Z,4.97
2022-10-21T12:56:31.220Z,6.27
2022-10-21T12:59:02.919Z,5.40
2022-10-21T13:01:43.502Z,4.13
2022-10-21T13:04:46.564Z,6.00
2022-10-21T13:07:37.538Z,4.77
2022-10-21T13:10:27.395Z,5.57
2022-10-21T13:13:29.568Z,5.73
2022-10-21T13:15:57.592Z,4.90
2022-10-21T13:18:54.503Z,4.30
2022-10-21T13:21:39.527Z,4.60
2022-10-21T13:24:20.972Z,3.77
2022-10-21T13:26:53.253Z,3.40
2022-10-21T13:29:44.895Z,2.97
2022-10-21T13:32:29.223Z,2.70
2022-10-21T13:35:32.092Z,3.33
2022-10-21T13:38:04.424Z,5.77
2022-10-21T13:40:38.389Z,3.30
2022-10-21T13:43:14.986Z,3.60
2022-10-21T13:45:49.259Z,3.50
2022-10-21T13:48:19.298Z,3.53
2022-10-21T13:50:49.094Z,3.30
2022-10-21T13:53:29.466Z,2.97
2022-10-21T13:55:59.936Z,3.13
2022-10-21T13:58:31.787Z,3.00
2022-10-21T14:01:09.186Z,2.73
2022-10-21T14:03:37.116Z,3.80
2022-10-21T14:06:08.282Z,3.77
2022-10-21T14:08:41.982Z,3.80
2022-10-21T14:11:17.082Z,4.10
2022-10-21T14:13:47.760Z,3.97
2022-10-21T14:16:23.117Z,4.80
2022-10-21T14:18:51.929Z,3.47
2022-10-21T14:21:23.420Z,3.60
2022-10-21T14:23:51.934Z,4.53
2022-10-21T14:26:20.408Z,3.83
2022-10-21T14:28:50.862Z,4.20
2022-10-21T14:31:19.717Z,4.30
2022-10-21T14:33:49.565Z,4.27
2022-10-21T14:36:20.472Z,4.20
2022-10-21T14:38:58.775Z,3.90
2022-10-21T14:41:29.442Z,4.00
2022-10-21T14:44:05.667Z,3.87
2022-10-21T14:46:42.107Z,3.70
2022-10-21T14:49:21.788Z,3.77
2022-10-21T14:51:50.432Z,3.87
2022-10-21T14:54:28.628Z,4.30
2022-10-21T14:56:57.827Z,3.60
2022-10-21T14:59:32.310Z,3.20
2022-10-21T15:02:02.080Z,3.80
2022-10-21T15:04:49.389Z,4.27
2022-10-21T15:10:14.261Z,3.97
2022-10-21T15:12:44.150Z,3.80
2022-10-21T15:15:44.962Z,4.03
2022-10-21T15:18:19.671Z,3.40
2022-10-21T15:20:53.806Z,3.30
2022-10-21T15:23:26.329Z,3.90
2022-10-21T15:26:00.205Z,3.80
2022-10-21T15:28:31.790Z,2.60
2022-10-21T15:31:02.384Z,2.73
2022-10-21T15:33:31.328Z,2.80
2022-10-21T15:36:08.459Z,2.73
2022-10-21T15:38:36.238Z,3.67
2022-10-21T15:41:04.738Z,3.67
2022-10-21T15:43:32.520Z,2.60
2022-10-21T15:46:01.670Z,3.20
2022-10-21T15:48:29.447Z,3.00
2022-10-21T15:50:57.915Z,2.77
2022-10-21T15:53:26.064Z,3.37
2022-10-21T15:55:54.902Z,3.47
2022-10-21T15:58:22.664Z,3.03
2022-10-21T16:00:50.498Z,2.27
2022-10-21T16:03:19.691Z,3.30
2022-10-21T16:05:47.514Z,3.57
2022-10-21T16:08:15.553Z,3.33
2022-10-21T16:10:47.601Z,4.20
2022-10-21T16:13:15.667Z,3.17
2022-10-21T16:15:43.752Z,3.87
2022-10-21T16:18:13.250Z,3.53
2022-10-21T16:20:43.579Z,3.90
2022-10-21T16:23:11.847Z,3.57
2022-10-21T16:25:39.655Z,2.90
2022-10-21T16:28:07.478Z,3.17
2022-10-21T16:30:37.073Z,3.37
2022-10-21T16:33:05.069Z,2.40
2022-10-21T16:35:32.907Z,2.53
2022-10-21T16:38:02.021Z,3.03
2022-10-21T16:40:32.588Z,2.80
2022-10-21T16:43:00.621Z,2.93
2022-10-21T16:45:30.438Z,3.00
2022-10-21T16:48:00.323Z,3.17
2022-10-21T16:50:34.784Z,2.47
2022-10-21T16:53:04.363Z,2.43
2022-10-21T16:55:32.141Z,3.10
2022-10-21T16:57:59.924Z,2.73
2022-10-21T17:00:27.715Z,2.60
2022-10-21T17:02:57.158Z,2.80
2022-10-21T17:05:24.968Z,3.10
2022-10-21T17:07:52.811Z,3.40
2022-10-21T17:10:21.929Z,3.20
2022-10-21T17:12:50.471Z,2.97
2022-10-21T17:15:18.305Z,2.30
2022-10-21T17:17:46.054Z,2.80
2022-10-21T17:20:13.856Z,3.90
2022-10-21T17:22:41.630Z,2.33
2022-10-21T17:25:12.413Z,1.90
2022-10-21T17:27:41.885Z,2.17
2022-10-21T17:30:12.171Z,2.20
2022-10-21T17:32:40.075Z,2.10
2022-10-21T17:35:14.180Z,2.20
2022-10-21T17:37:42.037Z,2.23
2022-10-21T17:40:11.493Z,2.70
2022-10-21T17:42:40.897Z,2.30
2022-10-21T17:45:11.432Z,2.13
2022-10-21T17:47:39.424Z,2.20
2022-10-21T17:50:07.751Z,2.20
2022-10-21T17:52:36.054Z,1.80
2022-10-21T17:55:04.997Z,2.03
2022-10-21T17:57:33.206Z,1.77
2022-10-21T18:02:35.712Z,1.77
2022-10-21T18:05:03.700Z,1.70
2022-10-21T18:07:31.863Z,1.73
2022-10-21T18:09:59.875Z,2.33
2022-10-21T18:12:27.645Z,2.13
2022-10-21T18:14:55.427Z,1.77
2022-10-21T18:17:24.570Z,2.00
2022-10-21T18:19:53.295Z,2.10
2022-10-21T18:22:21.635Z,1.70
2022-10-21T18:24:49.412Z,2.10
2022-10-21T18:27:17.329Z,1.60
2022-10-21T18:29:45.157Z,2.20
2022-10-21T18:32:14.694Z,2.70
2022-10-21T18:34:44.264Z,1.80
2022-10-21T18:37:12.039Z,1.93
2022-10-21T18:39:39.806Z,1.50
2022-10-21T18:42:07.576Z,2.10
2022-10-21T18:44:35.438Z,2.17
2022-10-21T18:47:03.361Z,2.00
2022-10-21T18:49:31.125Z,2.30
2022-10-21T18:52:00.258Z,2.50
2022-10-21T18:54:28.064Z,2.30
2022-10-21T18:56:58.712Z,2.20
2022-10-21T18:59:26.487Z,2.30
2022-10-21T19:01:54.907Z,3.50
2022-10-21T19:04:22.749Z,3.40
2022-10-21T19:06:50.577Z,3.63
2022-10-21T19:09:21.760Z,4.83
2022-10-21T19:11:49.946Z,4.40
2022-10-21T19:14:17.965Z,4.17
2022-10-21T19:16:47.374Z,3.90
2022-10-21T19:19:16.513Z,5.20
2022-10-21T19:21:44.440Z,3.70
2022-10-21T19:24:12.541Z,3.50
2022-10-21T19:26:43.934Z,3.63
2022-10-21T19:29:14.052Z,3.93
2022-10-21T19:31:42.111Z,3.60
2022-10-21T19:34:12.332Z,4.17
2022-10-21T19:36:40.137Z,5.33
2022-10-21T19:39:08.288Z,4.40
2022-10-21T19:41:36.108Z,4.40
2022-10-21T19:44:05.339Z,5.03
2022-10-21T19:46:34.604Z,4.50
2022-10-21T19:49:03.055Z,4.87
2022-10-21T19:51:30.996Z,4.40
2022-10-21T19:53:59.227Z,4.07
2022-10-21T19:56:30.771Z,4.47
2022-10-21T19:58:59.147Z,3.60
2022-10-21T20:01:28.282Z,3.43
2022-10-21T20:03:56.357Z,3.10
2022-10-21T20:06:26.582Z,3.27
2022-10-21T20:08:55.034Z,4.03
2022-10-21T20:11:23.574Z,2.43
2022-10-21T20:13:52.025Z,2.70
2022-10-21T20:16:21.993Z,2.63
2022-10-21T20:18:51.656Z,3.70
2022-10-21T20:21:20.066Z,3.33
2022-10-21T20:23:47.840Z,2.87
2022-10-21T20:26:15.611Z,3.10
2022-10-21T20:28:43.406Z,2.63
2022-10-21T20:31:13.119Z,3.03
2022-10-21T20:33:42.733Z,4.70
2022-10-21T20:36:15.123Z,2.80
2022-10-21T20:38:43.538Z,2.90
2022-10-21T20:41:14.184Z,3.20
2022-10-21T20:43:43.079Z,3.40
2022-10-21T20:46:13.685Z,4.57
2022-10-21T20:48:42.788Z,4.40
2022-10-21T20:51:13.608Z,4.27
2022-10-21T20:53:45.446Z,4.63
2022-10-21T20:56:13.292Z,4.53
2022-10-21T20:58:42.028Z,5.23
2022-10-21T21:01:12.377Z,4.60
2022-10-21T21:03:42.582Z,5.07
2022-10-21T21:06:12.749Z,4.20
2022-10-21T21:08:49.108Z,4.97
2022-10-21T21:11:22.151Z,3.90
2022-10-21T21:13:50.028Z,4.17
2022-10-21T21:16:19.663Z,4.40
2022-10-21T21:18:52.102Z,4.50
2022-10-21T21:21:23.168Z,3.63
2022-10-21T21:23:51.218Z,3.63
2022-10-21T21:26:20.759Z,4.10
2022-10-21T21:28:50.652Z,4.50
2022-10-21T21:31:20.043Z,3.80
2022-10-21T21:33:47.921Z,3.67
2022-10-21T21:36:16.813Z,4.33
2022-10-21T21:38:46.580Z,3.87
2022-10-21T21:41:16.456Z,3.97
2022-10-21T21:43:46.420Z,3.30
2022-10-21T21:46:22.531Z,3.60
2022-10-21T21:48:53.880Z,3.70
2022-10-21T21:51:23.964Z,4.27
2022-10-21T21:53:53.412Z,3.67
2022-10-21T21:56:22.312Z,3.57
2022-10-21T21:58:51.699Z,3.77
2022-10-21T22:01:22.053Z,3.70
2022-10-21T22:03:51.721Z,3.80
2022-10-21T22:06:20.913Z,3.53
2022-10-21T22:08:49.964Z,2.97
2022-10-21T22:11:23.172Z,3.27
2022-10-21T22:13:51.455Z,3.60
2022-10-21T22:16:19.857Z,3.67
2022-10-21T22:18:47.678Z,2.90
2022-10-21T22:21:17.941Z,3.20
2022-10-21T22:23:47.684Z,3.20
2022-10-21T22:26:16.808Z,3.90
2022-10-21T22:28:47.236Z,3.73
2022-10-21T22:31:19.402Z,3.60
2022-10-21T22:33:47.487Z,3.20
2022-10-21T22:36:17.293Z,3.80
2022-10-21T22:38:45.862Z,3.27
2022-10-21T22:41:14.008Z,3.60
2022-10-21T22:43:42.733Z,3.37
2022-10-21T22:46:29.169Z,5.90
2022-10-21T22:49:00.214Z,4.37
2022-10-21T22:51:28.017Z,4.23
2022-10-21T22:53:56.716Z,3.47
2022-10-21T22:56:24.897Z,3.90
2022-10-21T22:58:52.780Z,3.50
2022-10-21T23:01:23.831Z,4.33
2022-10-21T23:03:52.584Z,3.67
2022-10-21T23:06:20.331Z,3.63
2022-10-21T23:08:48.194Z,3.70
2022-10-21T23:11:16.264Z,4.50
2022-10-21T23:13:56.226Z,4.13
2022-10-21T23:16:32.519Z,4.40
2022-10-21T23:19:00.480Z,3.40
2022-10-21T23:21:28.828Z,3.93
2022-10-21T23:23:56.725Z,4.37
2022-10-21T23:26:24.560Z,3.03
2022-10-21T23:28:52.391Z,3.87
2022-10-21T23:31:20.724Z,3.50
2022-10-21T23:33:49.832Z,3.23
2022-10-21T23:36:17.707Z,3.60
2022-10-21T23:38:45.560Z,4.17
2022-10-21T23:41:13.432Z,3.00
2022-10-21T23:43:41.235Z,2.93
2022-10-21T23:46:08.991Z,3.90
2022-10-21T23:48:36.739Z,3.60
2022-10-21T23:51:06.285Z,3.47
2022-10-21T23:53:34.064Z,3.67
2022-10-21T23:56:01.851Z,3.20
2022-10-21T23:58:29.640Z,4.03
